createdAt,value
2022-10-23T00:01:35.338Z,77.40
2022-10-23T00:04:13.970Z,77.20
2022-10-23T00:06:42.422Z,77.40
2022-10-23T00:09:11.168Z,77.40
2022-10-23T00:11:39.150Z,77.40
2022-10-23T00:14:08.183Z,77.30
2022-10-23T00:16:36.560Z,77.20
2022-10-23T00:19:06.047Z,77.00
2022-10-23T00:21:33.476Z,76.30
2022-10-23T00:24:00.688Z,76.30
2022-10-23T00:26:28.300Z,75.70
2022-10-23T00:28:57.116Z,75.90
2022-10-23T00:31:25.475Z,76.00
2022-10-23T00:33:53.372Z,75.90
2022-10-23T00:36:21.915Z,76.00
2022-10-23T00:38:50.910Z,76.10
2022-10-23T00:41:28.801Z,76.50
2022-10-23T00:44:09.865Z,76.70
2022-10-23T00:46:39.127Z,77.30
2022-10-23T00:49:07.477Z,77.20
2022-10-23T00:51:48.159Z,77.20
2022-10-23T00:54:25.792Z,77.40
2022-10-23T00:56:57.073Z,78.10
2022-10-23T00:59:24.760Z,78.60
2022-10-23T01:01:52.341Z,78.80
2022-10-23T01:04:20.049Z,79.30
2022-10-23T01:06:50.216Z,79.60
2022-10-23T01:09:46.859Z,80.00
2022-10-23T01:12:42.867Z,80.10
2022-10-23T01:15:13.209Z,80.40
2022-10-23T01:17:46.840Z,80.10
2022-10-23T01:20:49.896Z,80.00
2022-10-23T01:23:26.065Z,79.70
2022-10-23T01:26:23.581Z,79.50
2022-10-23T01:29:07.084Z,78.60
2022-10-23T01:31:39.985Z,77.60
2022-10-23T01:34:16.282Z,77.20
2022-10-23T01:36:51.213Z,75.60
2022-10-23T01:39:23.564Z,75.10
2022-10-23T01:41:56.291Z,74.20
2022-10-23T01:44:42.924Z,73.60
2022-10-23T01:47:13.139Z,73.30
2022-10-23T01:50:14.894Z,73.10
2022-10-23T01:52:47.992Z,73.00
2022-10-23T01:55:17.833Z,73.00
2022-10-23T01:57:48.385Z,72.70
2022-10-23T02:00:20.630Z,72.40
2022-10-23T02:02:55.894Z,72.60
2022-10-23T02:05:31.509Z,72.00
2022-10-23T02:08:00.883Z,71.60
2022-10-23T02:11:07.149Z,71.40
2022-10-23T02:13:55.716Z,71.50
2022-10-23T02:16:41.864Z,71.20
2022-10-23T02:19:34.293Z,71.20
2022-10-23T02:22:25.150Z,71.30
2022-10-23T02:25:06.282Z,71.40
2022-10-23T02:27:40.691Z,71.70
2022-10-23T02:30:15.253Z,71.50
2022-10-23T02:32:51.333Z,71.70
2022-10-23T02:35:22.132Z,71.20
2022-10-23T02:38:00.530Z,71.50
2022-10-23T02:40:41.252Z,71.90
2022-10-23T02:43:34.553Z,71.90
2022-10-23T02:46:15.910Z,71.10
2022-10-23T02:48:54.061Z,70.90
2022-10-23T02:51:51.791Z,70.80
2022-10-23T02:54:25.727Z,70.50
2022-10-23T02:57:06.276Z,70.20
2022-10-23T03:00:25.986Z,70.60
2022-10-23T03:02:56.089Z,71.40
2022-10-23T03:05:33.281Z,71.70
2022-10-23T03:08:07.049Z,72.20
2022-10-23T03:10:34.420Z,72.70
2022-10-23T03:13:01.743Z,73.40
2022-10-23T03:15:34.742Z,73.80
2022-10-23T03:18:02.167Z,74.50
2022-10-23T03:20:29.645Z,75.00
2022-10-23T03:22:57.069Z,75.30
2022-10-23T03:25:24.354Z,75.10
2022-10-23T03:27:51.937Z,75.50
2022-10-23T03:30:19.847Z,75.30
2022-10-23T03:32:51.325Z,74.70
2022-10-23T03:35:18.666Z,74.90
2022-10-23T03:37:46.174Z,74.90
2022-10-23T03:40:13.930Z,73.80
2022-10-23T03:42:41.759Z,73.20
2022-10-23T03:45:11.547Z,73.50
2022-10-23T03:47:41.724Z,73.40
2022-10-23T03:50:10.103Z,73.50
2022-10-23T03:52:38.256Z,73.20
2022-10-23T03:55:06.114Z,72.30
2022-10-23T03:57:33.691Z,71.30
2022-10-23T04:00:01.050Z,70.50
2022-10-23T04:02:32.737Z,70.20
2022-10-23T04:05:00.196Z,69.50
2022-10-23T04:07:29.433Z,69.30
2022-10-23T04:09:59.405Z,69.70
2022-10-23T04:12:26.775Z,70.00
2022-10-23T04:14:54.779Z,70.20
2022-10-23T04:17:22.586Z,70.40
2022-10-23T04:19:50.364Z,70.00
2022-10-23T04:22:17.820Z,69.90
2022-10-23T04:24:46.839Z,69.70
2022-10-23T04:27:18.870Z,69.50
2022-10-23T04:29:46.231Z,69.60
2022-10-23T04:32:13.788Z,69.60
2022-10-23T04:34:44.140Z,69.80
2022-10-23T04:37:11.278Z,69.90
2022-10-23T04:39:40.363Z,70.80
2022-10-23T04:42:07.557Z,71.10
2022-10-23T04:44:35.497Z,71.20
2022-10-23T04:47:03.040Z,71.50
2022-10-23T04:49:31.117Z,72.00
2022-10-23T04:52:21.238Z,72.80
2022-10-23T04:55:25.484Z,73.00
2022-10-23T04:58:19.409Z,73.80
2022-10-23T05:00:47.792Z,74.50
2022-10-23T05:03:22.829Z,74.60
2022-10-23T05:05:54.837Z,75.50
2022-10-23T05:08:48.493Z,75.90
2022-10-23T05:11:34.203Z,76.20
2022-10-23T05:14:05.961Z,76.90
2022-10-23T05:16:44.437Z,77.30
2022-10-23T05:19:30.998Z,77.30
2022-10-23T05:21:58.565Z,77.00
2022-10-23T05:24:29.625Z,77.10
2022-10-23T05:27:03.170Z,76.90
2022-10-23T05:29:32.972Z,77.00
2022-10-23T05:32:10.175Z,77.00
2022-10-23T05:34:40.431Z,76.90
2022-10-23T05:37:13.407Z,76.70
2022-10-23T05:39:43.351Z,76.30
2022-10-23T05:42:13.900Z,75.90
2022-10-23T05:44:42.485Z,75.30
2022-10-23T05:47:14.531Z,75.00
2022-10-23T05:49:54.155Z,74.40
2022-10-23T05:52:40.718Z,73.90
2022-10-23T05:55:29.815Z,73.30
2022-10-23T05:58:17.479Z,73.10
2022-10-23T06:01:10.313Z,72.00
2022-10-23T06:03:55.995Z,71.70
2022-10-23T06:06:31.329Z,71.10
2022-10-23T06:08:58.668Z,70.40
2022-10-23T06:11:25.935Z,69.80
2022-10-23T06:14:01.224Z,69.50
2022-10-23T06:16:28.729Z,68.80
2022-10-23T06:18:57.567Z,68.40
2022-10-23T06:21:25.119Z,68.10
2022-10-23T06:23:58.579Z,67.80
2022-10-23T06:26:34.074Z,67.70
2022-10-23T06:29:07.551Z,67.60
2022-10-23T06:31:34.905Z,67.30
2022-10-23T06:34:03.605Z,66.90
2022-10-23T06:36:32.012Z,66.40
2022-10-23T06:39:08.476Z,66.10
2022-10-23T06:42:05.096Z,65.80
2022-10-23T06:44:51.022Z,65.20
2022-10-23T06:47:34.487Z,64.90
2022-10-23T06:50:20.269Z,64.80
2022-10-23T06:52:48.049Z,64.00
2022-10-23T06:55:19.544Z,63.50
2022-10-23T06:57:47.327Z,63.10
2022-10-23T07:00:15.402Z,63.00
2022-10-23T07:02:53.669Z,62.70
2022-10-23T07:05:21.284Z,62.30
2022-10-23T07:07:48.683Z,61.90
2022-10-23T07:10:22.809Z,62.20
2022-10-23T07:13:08.772Z,61.60
2022-10-23T07:15:36.766Z,61.10
2022-10-23T07:18:06.377Z,60.40
2022-10-23T07:20:59.374Z,60.20
2022-10-23T07:23:26.909Z,59.60
2022-10-23T07:25:54.925Z,59.30
2022-10-23T07:28:23.748Z,58.80
2022-10-23T07:30:58.953Z,58.40
2022-10-23T07:33:34.007Z,58.40
2022-10-23T07:36:09.908Z,58.20
2022-10-23T07:38:37.512Z,58.00
2022-10-23T07:41:07.863Z,57.60
2022-10-23T07:43:38.494Z,57.50
2022-10-23T07:46:05.868Z,56.80
2022-10-23T07:48:39.359Z,56.80
2022-10-23T07:51:17.307Z,55.70
2022-10-23T07:53:50.110Z,55.90
2022-10-23T07:56:52.302Z,55.40
2022-10-23T07:59:28.120Z,55.10
2022-10-23T08:01:58.026Z,54.70
2022-10-23T08:04:31.866Z,54.60
2022-10-23T08:07:04.569Z,54.20
2022-10-23T08:09:38.319Z,54.50
2022-10-23T08:12:06.173Z,53.70
2022-10-23T08:14:33.442Z,53.70
2022-10-23T08:19:55.872Z,52.50
2022-10-23T08:22:25.914Z,51.50
2022-10-23T08:24:53.125Z,50.60
2022-10-23T08:27:20.365Z,50.60
2022-10-23T08:29:48.883Z,50.20
2022-10-23T08:32:16.296Z,50.40
2022-10-23T08:34:58.445Z,50.10
2022-10-23T08:37:27.878Z,49.90
2022-10-23T08:39:56.137Z,49.80
2022-10-23T08:43:20.762Z,49.80
2022-10-23T08:46:09.247Z,49.40
2022-10-23T08:49:24.778Z,48.60
2022-10-23T08:52:00.412Z,48.00
2022-10-23T08:54:55.081Z,47.60
2022-10-23T08:57:26.868Z,47.60
2022-10-23T08:59:59.301Z,47.90
2022-10-23T09:02:34.021Z,47.00
2022-10-23T09:05:01.611Z,46.60
2022-10-23T09:07:55.927Z,45.90
2022-10-23T09:10:48.046Z,48.40
2022-10-23T09:13:36.576Z,52.40
2022-10-23T09:16:07.837Z,54.50
2022-10-23T09:18:35.198Z,54.90
2022-10-23T09:21:03.033Z,55.70
2022-10-23T09:23:30.369Z,56.90
2022-10-23T09:25:57.828Z,57.10
2022-10-23T09:28:42.532Z,57.10
2022-10-23T09:31:14.155Z,57.40
2022-10-23T09:33:42.229Z,57.40
2022-10-23T09:36:20.887Z,57.40
2022-10-23T09:38:55.299Z,57.50
2022-10-23T09:41:30.866Z,57.70
2022-10-23T09:44:26.329Z,57.40
2022-10-23T09:47:01.164Z,57.90
2022-10-23T09:49:30.967Z,56.90
2022-10-23T09:52:10.029Z,57.40
2022-10-23T09:54:44.068Z,56.80
2022-10-23T09:57:23.166Z,57.80
2022-10-23T09:59:56.885Z,58.30
2022-10-23T10:02:36.025Z,57.70
2022-10-23T10:05:41.969Z,57.50
2022-10-23T10:08:24.070Z,57.80
2022-10-23T10:10:52.623Z,57.60
2022-10-23T10:13:39.614Z,58.00
2022-10-23T10:16:33.481Z,58.30
2022-10-23T10:19:15.952Z,58.40
2022-10-23T10:22:02.460Z,58.50
2022-10-23T10:24:48.740Z,58.20
2022-10-23T10:27:45.111Z,56.30
2022-10-23T10:30:20.786Z,56.80
2022-10-23T10:33:02.704Z,55.70
2022-10-23T10:35:50.825Z,56.50
2022-10-23T10:38:35.343Z,55.70
2022-10-23T10:41:29.861Z,56.00
2022-10-23T10:44:25.146Z,55.80
2022-10-23T10:47:05.692Z,54.70
2022-10-23T10:49:46.571Z,53.60
2022-10-23T10:52:36.741Z,52.60
2022-10-23T10:55:09.472Z,50.90
2022-10-23T10:57:47.526Z,49.70
2022-10-23T11:00:20.224Z,48.20
2022-10-23T11:02:57.974Z,47.20
2022-10-23T11:05:41.800Z,46.20
2022-10-23T11:08:44.413Z,45.30
2022-10-23T11:11:23.926Z,44.20
2022-10-23T11:13:53.424Z,43.90
2022-10-23T11:16:26.445Z,42.80
2022-10-23T11:19:28.799Z,43.40
2022-10-23T11:22:02.085Z,43.90
2022-10-23T11:24:35.350Z,43.70
2022-10-23T11:27:23.795Z,43.90
2022-10-23T11:30:09.676Z,42.70
2022-10-23T11:33:02.328Z,42.50
2022-10-23T11:35:57.472Z,42.30
2022-10-23T11:38:37.450Z,43.00
2022-10-23T11:41:23.673Z,43.00
2022-10-23T11:44:04.634Z,43.20
2022-10-23T11:46:38.581Z,42.70
2022-10-23T11:49:19.552Z,42.30
2022-10-23T11:51:47.180Z,41.50
2022-10-23T11:54:17.332Z,40.90
2022-10-23T11:57:16.161Z,41.80
2022-10-23T11:59:49.040Z,42.90
2022-10-23T12:02:38.493Z,43.50
2022-10-23T12:05:10.217Z,42.40
2022-10-23T12:07:40.286Z,41.70
2022-10-23T12:10:47.289Z,42.70
2022-10-23T12:13:29.054Z,42.00
2022-10-23T12:15:59.999Z,43.30
2022-10-23T12:18:28.444Z,43.80
2022-10-23T12:21:04.729Z,44.70
2022-10-23T12:24:07.342Z,45.80
2022-10-23T12:26:52.693Z,46.90
2022-10-23T12:29:53.982Z,45.70
2022-10-23T12:32:30.205Z,44.70
2022-10-23T12:34:57.345Z,44.70
2022-10-23T12:37:46.513Z,44.90
2022-10-23T12:40:14.013Z,44.50
2022-10-23T12:42:49.698Z,45.00
2022-10-23T12:45:24.207Z,44.50
2022-10-23T12:47:53.691Z,45.00
2022-10-23T12:50:25.430Z,45.40
2022-10-23T12:53:01.168Z,44.30
2022-10-23T12:55:35.807Z,44.70
2022-10-23T12:58:03.395Z,44.00
2022-10-23T13:00:31.276Z,45.00
2022-10-23T13:03:01.722Z,46.00
2022-10-23T13:05:30.459Z,47.20
2022-10-23T13:07:59.592Z,48.80
2022-10-23T13:10:48.340Z,51.40
2022-10-23T13:13:23.175Z,53.70
2022-10-23T13:15:50.903Z,55.40
2022-10-23T13:18:18.614Z,56.90
2022-10-23T13:20:54.787Z,57.50
2022-10-23T13:23:31.573Z,57.60
2022-10-23T13:26:00.972Z,58.60
2022-10-23T13:28:41.808Z,59.20
2022-10-23T13:31:14.853Z,59.60
2022-10-23T13:33:47.832Z,60.50
2022-10-23T13:36:17.920Z,61.20
2022-10-23T13:38:47.868Z,60.90
2022-10-23T13:41:20.593Z,60.40
2022-10-23T13:43:48.464Z,60.90
2022-10-23T13:46:17.450Z,61.10
2022-10-23T13:48:44.957Z,61.40
2022-10-23T13:51:40.202Z,61.90
2022-10-23T13:54:21.890Z,61.40
2022-10-23T13:56:50.097Z,62.70
2022-10-23T13:59:18.458Z,63.40
2022-10-23T14:01:48.379Z,63.00
2022-10-23T14:04:16.895Z,63.30
2022-10-23T14:06:45.027Z,63.20
2022-10-23T14:09:14.663Z,63.40
2022-10-23T14:11:44.612Z,63.70
2022-10-23T14:14:12.830Z,63.30
2022-10-23T14:16:39.983Z,63.90
2022-10-23T14:19:08.199Z,64.10
2022-10-23T14:21:35.563Z,65.10
2022-10-23T14:24:03.957Z,65.70
2022-10-23T14:26:32.967Z,66.80
2022-10-23T14:29:04.197Z,66.70
2022-10-23T14:31:35.802Z,65.90
2022-10-23T14:34:02.924Z,66.50
2022-10-23T14:36:38.797Z,66.40
2022-10-23T14:39:17.792Z,66.80
2022-10-23T14:41:45.029Z,68.40
2022-10-23T14:44:12.759Z,69.00
2022-10-23T14:46:39.976Z,69.40
2022-10-23T14:49:07.466Z,70.40
2022-10-23T14:51:35.433Z,66.80
2022-10-23T14:54:04.993Z,65.60
2022-10-23T14:56:37.687Z,67.10
2022-10-23T14:59:05.370Z,68.00
2022-10-23T15:01:36.055Z,68.60
2022-10-23T15:04:05.279Z,69.10
2022-10-23T15:06:33.595Z,69.20
2022-10-23T15:09:01.010Z,70.00
2022-10-23T15:11:28.753Z,71.00
2022-10-23T15:13:56.262Z,71.60
2022-10-23T15:16:24.219Z,72.40
2022-10-23T15:18:52.422Z,72.30
2022-10-23T15:21:26.976Z,72.00
2022-10-23T15:23:55.020Z,72.30
2022-10-23T15:26:23.343Z,72.90
2022-10-23T15:28:59.528Z,72.80
2022-10-23T15:31:29.663Z,73.00
2022-10-23T15:34:00.226Z,72.70
2022-10-23T15:36:32.494Z,73.00
2022-10-23T15:39:01.119Z,72.80
2022-10-23T15:41:33.137Z,73.00
2022-10-23T15:44:01.517Z,73.00
2022-10-23T15:46:29.207Z,72.70
2022-10-23T15:48:56.511Z,72.10
2022-10-23T15:51:23.808Z,71.60
2022-10-23T15:53:51.264Z,70.30
2022-10-23T15:56:18.557Z,71.00
2022-10-23T15:58:46.004Z,72.40
2022-10-23T16:01:13.260Z,73.00
2022-10-23T16:03:40.719Z,73.60
2022-10-23T16:06:14.629Z,74.40
2022-10-23T16:08:44.031Z,74.80
2022-10-23T16:11:19.469Z,75.40
2022-10-23T16:13:47.742Z,76.30
2022-10-23T16:16:16.023Z,76.80
2022-10-23T16:18:44.791Z,77.30
2022-10-23T16:21:39.278Z,77.90
2022-10-23T16:24:08.394Z,78.60
2022-10-23T16:26:37.542Z,79.30
2022-10-23T16:29:07.685Z,79.60
2022-10-23T16:31:35.732Z,80.00
2022-10-23T16:34:07.294Z,80.90
2022-10-23T16:36:39.197Z,81.20
2022-10-23T16:39:10.702Z,81.50
2022-10-23T16:41:56.414Z,81.90
2022-10-23T16:44:28.028Z,82.40
2022-10-23T16:46:59.901Z,82.60
2022-10-23T16:49:29.898Z,82.80
2022-10-23T16:51:57.293Z,83.10
2022-10-23T16:54:24.502Z,83.70
2022-10-23T16:56:51.665Z,84.10
2022-10-23T16:59:19.059Z,84.00
2022-10-23T17:01:46.504Z,84.10
2022-10-23T17:04:13.773Z,84.10
2022-10-23T17:06:41.600Z,84.20
2022-10-23T17:09:09.057Z,84.20
2022-10-23T17:11:39.201Z,84.50
2022-10-23T17:14:18.598Z,84.50
2022-10-23T17:16:51.369Z,84.50
2022-10-23T17:19:40.170Z,84.40
2022-10-23T17:22:10.941Z,84.00
2022-10-23T17:24:44.165Z,83.90
2022-10-23T17:27:13.516Z,83.90
2022-10-23T17:29:40.681Z,83.80
2022-10-23T17:32:08.007Z,83.90
2022-10-23T17:34:35.390Z,83.90
2022-10-23T17:37:02.553Z,84.10
2022-10-23T17:39:30.342Z,84.10
2022-10-23T17:41:58.364Z,84.10
2022-10-23T17:44:26.104Z,84.20
2022-10-23T17:46:54.622Z,84.10
2022-10-23T17:49:23.153Z,84.20
2022-10-23T17:51:55.656Z,84.40
2022-10-23T17:54:24.303Z,84.70
2022-10-23T17:56:51.481Z,85.10
2022-10-23T17:59:23.152Z,85.30
2022-10-23T18:01:50.950Z,85.40
2022-10-23T18:04:20.321Z,85.60
2022-10-23T18:06:53.118Z,85.60
2022-10-23T18:09:21.904Z,85.70
2022-10-23T18:11:50.471Z,85.80
2022-10-23T18:14:20.119Z,85.70
2022-10-23T18:16:47.442Z,85.50
2022-10-23T18:19:18.269Z,85.90
2022-10-23T18:21:46.306Z,85.00
2022-10-23T18:24:13.784Z,85.10
2022-10-23T18:26:42.557Z,85.00
2022-10-23T18:29:12.279Z,85.00
2022-10-23T18:31:40.231Z,85.00
2022-10-23T18:34:13.764Z,84.40
2022-10-23T18:36:41.163Z,83.70
2022-10-23T18:39:12.371Z,82.60
2022-10-23T18:41:42.050Z,82.10
2022-10-23T18:44:10.999Z,82.00
2022-10-23T18:46:38.220Z,81.80
2022-10-23T18:49:05.573Z,81.80
2022-10-23T18:51:35.281Z,81.90
2022-10-23T18:54:04.630Z,81.30
2022-10-23T18:56:34.276Z,81.20
2022-10-23T18:59:04.062Z,80.90
2022-10-23T19:01:32.379Z,81.10
2022-10-23T19:04:02.332Z,81.10
2022-10-23T19:06:31.086Z,81.10
2022-10-23T19:09:00.487Z,81.10
2022-10-23T19:11:28.830Z,81.20
2022-10-23T19:13:56.250Z,81.50
2022-10-23T19:16:37.633Z,81.30
2022-10-23T19:19:12.252Z,81.30
2022-10-23T19:21:40.712Z,81.10
2022-10-23T19:24:16.308Z,81.40
2022-10-23T19:26:44.322Z,81.80
2022-10-23T19:29:15.718Z,81.90
2022-10-23T19:31:49.072Z,82.20
2022-10-23T19:34:20.052Z,82.50
2022-10-23T19:36:49.997Z,82.50
2022-10-23T19:39:17.973Z,82.40
2022-10-23T19:41:46.049Z,82.30
2022-10-23T19:44:16.308Z,82.30
2022-10-23T19:46:43.686Z,82.30
2022-10-23T19:49:11.149Z,82.50
2022-10-23T19:51:38.676Z,82.90
2022-10-23T19:54:06.861Z,82.60
2022-10-23T19:56:34.356Z,82.60
2022-10-23T19:59:01.456Z,82.70
2022-10-23T20:01:28.985Z,82.80
2022-10-23T20:03:56.376Z,83.00
2022-10-23T20:06:29.917Z,83.20
2022-10-23T20:08:57.301Z,83.40
2022-10-23T20:11:28.319Z,83.50
2022-10-23T20:13:55.957Z,83.60
2022-10-23T20:16:28.164Z,83.30
2022-10-23T20:18:55.961Z,83.30
2022-10-23T20:21:24.162Z,83.00
2022-10-23T20:23:51.847Z,83.00
2022-10-23T20:26:22.049Z,83.20
2022-10-23T20:28:53.597Z,83.30
2022-10-23T20:31:23.261Z,83.10
2022-10-23T20:33:50.900Z,83.10
2022-10-23T20:36:28.384Z,83.20
2022-10-23T20:38:57.264Z,83.30
2022-10-23T20:41:27.167Z,83.30
2022-10-23T20:43:56.271Z,83.60
2022-10-23T20:46:23.476Z,83.70
2022-10-23T20:48:54.110Z,83.90
2022-10-23T20:51:23.687Z,84.00
2022-10-23T20:53:52.201Z,84.40
2022-10-23T20:56:32.854Z,84.60
2022-10-23T20:59:10.405Z,84.80
2022-10-23T21:01:41.081Z,85.00
2022-10-23T21:04:08.369Z,84.70
2022-10-23T21:06:46.225Z,85.00
2022-10-23T21:09:22.948Z,85.00
2022-10-23T21:11:50.509Z,85.20
2022-10-23T21:14:18.859Z,85.40
2022-10-23T21:16:46.640Z,85.40
2022-10-23T21:19:16.233Z,85.50
2022-10-23T21:21:44.076Z,85.60
2022-10-23T21:24:16.611Z,85.50
2022-10-23T21:26:44.711Z,85.70
2022-10-23T21:29:20.503Z,85.80
2022-10-23T21:31:59.357Z,86.00
2022-10-23T21:34:27.704Z,85.90
2022-10-23T21:39:46.183Z,85.60
2022-10-23T21:42:14.741Z,85.50
2022-10-23T21:44:42.081Z,85.40
2022-10-23T21:47:09.358Z,85.60
2022-10-23T21:49:36.684Z,85.70
2022-10-23T21:52:04.747Z,85.80
2022-10-23T21:54:31.922Z,85.90
2022-10-23T21:56:59.190Z,85.70
2022-10-23T21:59:30.247Z,85.90
2022-10-23T22:01:59.462Z,86.10
2022-10-23T22:04:26.728Z,86.20
2022-10-23T22:06:54.007Z,86.30
2022-10-23T22:09:22.444Z,86.60
2022-10-23T22:11:50.684Z,86.80
2022-10-23T22:14:18.497Z,87.00
2022-10-23T22:16:46.191Z,87.20
2022-10-23T22:19:15.347Z,87.20
2022-10-23T22:21:43.342Z,87.20
2022-10-23T22:24:11.029Z,86.70
2022-10-23T22:26:44.405Z,86.20
2022-10-23T22:29:15.247Z,86.10
2022-10-23T22:31:45.774Z,86.00
2022-10-23T22:34:47.934Z,86.10
2022-10-23T22:37:12.163Z,86.50
2022-10-23T22:39:40.039Z,86.80
2022-10-23T22:42:07.520Z,87.00
2022-10-23T22:44:34.714Z,86.90
2022-10-23T22:47:01.800Z,87.00
2022-10-23T22:49:29.082Z,87.10
2022-10-23T22:51:56.290Z,86.80
2022-10-23T22:54:23.501Z,86.60
2022-10-23T22:56:50.653Z,86.20
2022-10-23T22:59:17.986Z,84.10
2022-10-23T23:01:47.633Z,83.20
2022-10-23T23:07:10.038Z,77.40
2022-10-23T23:09:41.736Z,73.50
2022-10-23T23:12:11.119Z,73.00
2022-10-23T23:14:38.743Z,72.30
2022-10-23T23:17:07.030Z,71.50
2022-10-23T23:19:34.459Z,71.50
2022-10-23T23:22:01.897Z,71.70
2022-10-23T23:24:29.299Z,71.80
2022-10-23T23:26:56.518Z,71.80
2022-10-23T23:29:23.697Z,71.90
2022-10-23T23:31:51.093Z,72.40
2022-10-23T23:34:18.291Z,72.20
2022-10-23T23:36:45.491Z,71.90
2022-10-23T23:39:12.823Z,71.80
2022-10-23T23:41:39.968Z,71.80
2022-10-23T23:44:08.543Z,71.80
2022-10-23T23:46:35.722Z,71.10
2022-10-23T23:49:03.016Z,71.00
2022-10-23T23:51:30.301Z,70.20
2022-10-23T23:53:57.528Z,70.20
2022-10-23T23:56:24.796Z,70.00
2022-10-23T23:58:51.917Z,68.90
